PWSweather.com
Personal Weather Stations
Station Observations
BWSWX1
Teesside, BillinghamGB TS23 1DL

TeessideBillinghamGB TS23 1DL

Lat: 54.588219, Lon: -1.289528

Elevation: 39

Station Type: Davis Vantage Pro2 Plus

http://billinghamweather.com/index.php

Latest ConditionsUpdated 10:20:10 PM GMT Friday, Jul 21, 2017
Currently Today's Max Today's Min Today's Average
Temperature 63.1°F17.3°C 69.1°F20.6°C 47.9°F8.8°C 61.0°F16.1°C
Dew Point 55.4°F13.0°C 56.7°F13.7°C 44.6°F7.0°C 52.7°F11.5°C
Winds 7.0 mph ESE11.3 kmh ESE 9.3 mph SE15.0 kmh SE - 3.7 mph 6.0 kmh
Wind Gusts 13.0 mph20.9 kmh 14.0 mph22.5 kmh - -
Humidity 76% 92% 61% 75%
Pressure 29.70 in1005.8 mb 29.72 in1006.4 mb 29.67 in1004.7 mb -
Hour Temp Dew Point Humidity Winds Wind Gusts Pressure Precip Precip Rate Daily Precip Total
10:20 PM 63.1°F17.3°C 55.4°F13.0°C 76% 7.0 mph ESE11.3 kmh ESE 13.0 mph20.9 kmh 29.70 in1005.8 mb - 0.00 in0.0 mm 0.00 in0.0 mm
10:10 PM 63.2°F17.3°C 55.5°F13.1°C 76% 6.9 mph ESE11.1 kmh ESE 13.0 mph20.9 kmh 29.69 in1005.4 mb - 0.00 in0.0 mm 0.00 in0.0 mm
10:00 PM 63.3°F17.4°C 55.3°F12.9°C 75% 6.4 mph SE10.3 kmh SE 9.0 mph14.5 kmh 29.70 in1005.8 mb - 0.00 in0.0 mm 0.00 in0.0 mm
09:50 PM 63.4°F17.4°C 55.3°F12.9°C 75% 4.8 mph SE7.7 kmh SE 10.0 mph16.1 kmh 29.69 in1005.4 mb - 0.00 in0.0 mm 0.00 in0.0 mm
09:40 PM 63.4°F17.4°C 55.4°F13.0°C 75% 4.2 mph SE6.8 kmh SE 6.0 mph9.7 kmh 29.69 in1005.4 mb - 0.00 in0.0 mm 0.00 in0.0 mm
09:30 PM 63.5°F17.5°C 55.4°F13.0°C 75% 4.2 mph ESE6.8 kmh ESE 7.0 mph11.3 kmh 29.69 in1005.4 mb - 0.00 in0.0 mm 0.00 in0.0 mm
09:20 PM 63.6°F17.6°C 55.5°F13.1°C 75% 4.7 mph ESE7.6 kmh ESE 9.0 mph14.5 kmh 29.69 in1005.4 mb - 0.00 in0.0 mm 0.00 in0.0 mm
09:10 PM 63.8°F17.7°C 55.7°F13.2°C 75% 4.3 mph SE6.9 kmh SE 8.0 mph12.9 kmh 29.69 in1005.4 mb - 0.00 in0.0 mm 0.00 in0.0 mm
09:00 PM 64.0°F17.8°C 55.9°F13.3°C 75% 4.9 mph SSE7.9 kmh SSE 6.0 mph9.7 kmh 29.69 in1005.4 mb - 0.00 in0.0 mm 0.00 in0.0 mm
08:50 PM 64.4°F18.0°C 56.3°F13.5°C 75% 4.0 mph ESE6.4 kmh ESE 7.0 mph11.3 kmh 29.69 in1005.4 mb - 0.00 in0.0 mm 0.00 in0.0 mm
08:40 PM 64.7°F18.2°C 56.2°F13.4°C 74% 3.4 mph SE5.5 kmh SE 9.0 mph14.5 kmh 29.69 in1005.4 mb - 0.00 in0.0 mm 0.00 in0.0 mm
08:30 PM 64.9°F18.3°C 56.0°F13.3°C 73% 3.2 mph SE5.1 kmh SE 6.0 mph9.7 kmh 29.69 in1005.4 mb - 0.00 in0.0 mm 0.00 in0.0 mm
08:20 PM 65.2°F18.4°C 56.3°F13.5°C 73% 3.2 mph SSE5.1 kmh SSE 5.0 mph8.0 kmh 29.69 in1005.4 mb - 0.00 in0.0 mm 0.00 in0.0 mm
08:10 PM 65.5°F18.6°C 56.2°F13.4°C 72% 2.0 mph E3.2 kmh E 7.0 mph11.3 kmh 29.69 in1005.4 mb - 0.00 in0.0 mm 0.00 in0.0 mm
08:00 PM 66.0°F18.9°C 56.3°F13.5°C 71% 6.3 mph E10.1 kmh E 11.0 mph17.7 kmh 29.68 in1005.1 mb - 0.00 in0.0 mm 0.00 in0.0 mm
07:50 PM 66.5°F19.2°C 56.4°F13.6°C 70% 3.0 mph SE4.8 kmh SE 4.0 mph6.4 kmh 29.68 in1005.1 mb - 0.00 in0.0 mm 0.00 in0.0 mm
07:40 PM 66.8°F19.3°C 55.9°F13.3°C 68% 3.2 mph ESE5.1 kmh ESE 7.0 mph11.3 kmh 29.68 in1005.1 mb - 0.00 in0.0 mm 0.00 in0.0 mm
07:30 PM 67.2°F19.6°C 55.9°F13.3°C 67% 4.1 mph SSE6.6 kmh SSE 6.0 mph9.7 kmh 29.67 in1004.7 mb - 0.00 in0.0 mm 0.00 in0.0 mm
07:20 PM 67.7°F19.8°C 56.3°F13.5°C 67% 5.4 mph ESE8.7 kmh ESE 11.0 mph17.7 kmh 29.68 in1005.1 mb - 0.00 in0.0 mm 0.00 in0.0 mm
07:10 PM 68.0°F20.0°C 56.2°F13.4°C 66% 4.4 mph E7.1 kmh E 9.0 mph14.5 kmh 29.67 in1004.7 mb - 0.00 in0.0 mm 0.00 in0.0 mm
07:00 PM 68.1°F20.1°C 56.3°F13.5°C 66% 3.9 mph E6.3 kmh E 7.0 mph11.3 kmh 29.67 in1004.7 mb - 0.00 in0.0 mm 0.00 in0.0 mm
06:50 PM 68.0°F20.0°C 55.8°F13.2°C 65% 4.6 mph E7.4 kmh E 8.0 mph12.9 kmh 29.67 in1004.7 mb - 0.00 in0.0 mm 0.00 in0.0 mm
06:40 PM 67.9°F19.9°C 55.7°F13.2°C 65% 5.8 mph ESE9.3 kmh ESE 9.0 mph14.5 kmh 29.67 in1004.7 mb - 0.00 in0.0 mm 0.00 in0.0 mm
06:30 PM 68.0°F20.0°C 56.2°F13.4°C 66% 4.3 mph E6.9 kmh E 10.0 mph16.1 kmh 29.67 in1004.7 mb - 0.00 in0.0 mm 0.00 in0.0 mm
06:20 PM 68.1°F20.1°C 56.7°F13.7°C 67% 4.7 mph E7.6 kmh E 8.0 mph12.9 kmh 29.67 in1004.7 mb - 0.00 in0.0 mm 0.00 in0.0 mm
06:10 PM 67.9°F19.9°C 56.1°F13.4°C 66% 5.1 mph E8.2 kmh E 11.0 mph17.7 kmh 29.67 in1004.7 mb - 0.00 in0.0 mm 0.00 in0.0 mm
06:00 PM 67.7°F19.8°C 55.9°F13.3°C 66% 4.5 mph E7.2 kmh E 10.0 mph16.1 kmh 29.67 in1004.7 mb - 0.00 in0.0 mm 0.00 in0.0 mm
05:50 PM 67.8°F19.9°C 55.6°F13.1°C 65% 5.5 mph SE8.9 kmh SE 7.0 mph11.3 kmh 29.67 in1004.7 mb - 0.00 in0.0 mm 0.00 in0.0 mm
05:40 PM 67.9°F19.9°C 55.7°F13.2°C 65% 6.2 mph SE10.0 kmh SE 12.0 mph19.3 kmh 29.67 in1004.7 mb - 0.00 in0.0 mm 0.00 in0.0 mm
05:30 PM 68.0°F20.0°C 56.2°F13.4°C 66% 6.5 mph E10.5 kmh E 11.0 mph17.7 kmh 29.68 in1005.1 mb - 0.00 in0.0 mm 0.00 in0.0 mm
05:20 PM 67.9°F19.9°C 56.5°F13.6°C 67% 4.8 mph SE7.7 kmh SE 13.0 mph20.9 kmh 29.67 in1004.7 mb - 0.00 in0.0 mm 0.00 in0.0 mm
05:10 PM 67.8°F19.9°C 56.4°F13.6°C 67% 3.7 mph E6.0 kmh E 7.0 mph11.3 kmh 29.67 in1004.7 mb - 0.00 in0.0 mm 0.00 in0.0 mm
05:00 PM 67.8°F19.9°C 56.0°F13.3°C 66% 5.8 mph S9.3 kmh S 8.0 mph12.9 kmh 29.67 in1004.7 mb - 0.00 in0.0 mm 0.00 in0.0 mm
04:50 PM 67.8°F19.9°C 56.4°F13.6°C 67% 5.1 mph ESE8.2 kmh ESE 10.0 mph16.1 kmh 29.67 in1004.7 mb - 0.00 in0.0 mm 0.00 in0.0 mm
04:40 PM 67.7°F19.8°C 56.3°F13.5°C 67% 2.7 mph ESE4.3 kmh ESE 5.0 mph8.0 kmh 29.67 in1004.7 mb - 0.00 in0.0 mm 0.00 in0.0 mm
04:30 PM 67.6°F19.8°C 56.3°F13.5°C 67% 4.0 mph ESE6.4 kmh ESE 6.0 mph9.7 kmh 29.68 in1005.1 mb - 0.00 in0.0 mm 0.00 in0.0 mm
04:20 PM 67.6°F19.8°C 55.8°F13.2°C 66% 4.2 mph ESE6.8 kmh ESE 6.0 mph9.7 kmh 29.68 in1005.1 mb - 0.00 in0.0 mm 0.00 in0.0 mm
04:10 PM 67.8°F19.9°C 56.4°F13.6°C 67% 5.2 mph E8.4 kmh E 11.0 mph17.7 kmh 29.68 in1005.1 mb - 0.00 in0.0 mm 0.00 in0.0 mm
04:00 PM 68.2°F20.1°C 56.4°F13.6°C 66% 6.0 mph ESE9.7 kmh ESE 11.0 mph17.7 kmh 29.68 in1005.1 mb - 0.00 in0.0 mm 0.00 in0.0 mm
03:50 PM 68.7°F20.4°C 56.5°F13.6°C 65% 6.2 mph ESE10.0 kmh ESE 12.0 mph19.3 kmh 29.68 in1005.1 mb - 0.00 in0.0 mm 0.00 in0.0 mm
03:40 PM 69.1°F20.6°C 55.5°F13.1°C 62% 4.8 mph E7.7 kmh E 8.0 mph12.9 kmh 29.68 in1005.1 mb - 0.00 in0.0 mm 0.00 in0.0 mm
03:30 PM 68.9°F20.5°C 54.9°F12.7°C 61% 5.2 mph E8.4 kmh E 13.0 mph20.9 kmh 29.68 in1005.1 mb - 0.00 in0.0 mm 0.00 in0.0 mm
03:20 PM 68.7°F20.4°C 55.2°F12.9°C 62% 6.2 mph SSE10.0 kmh SSE 8.0 mph12.9 kmh 29.68 in1005.1 mb - 0.00 in0.0 mm 0.00 in0.0 mm
03:10 PM 68.5°F20.3°C 55.4°F13.0°C 63% 6.2 mph E10.0 kmh E 12.0 mph19.3 kmh 29.68 in1005.1 mb - 0.00 in0.0 mm 0.00 in0.0 mm
03:00 PM 68.5°F20.3°C 55.4°F13.0°C 63% 7.1 mph SSW11.4 kmh SSW 12.0 mph19.3 kmh 29.69 in1005.4 mb - 0.00 in0.0 mm 0.00 in0.0 mm
02:50 PM 68.3°F20.2°C 55.2°F12.9°C 63% 4.3 mph SE6.9 kmh SE 7.0 mph11.3 kmh 29.68 in1005.1 mb - 0.00 in0.0 mm 0.00 in0.0 mm
02:40 PM 68.2°F20.1°C 55.2°F12.9°C 63% 4.3 mph SSW6.9 kmh SSW 12.0 mph19.3 kmh 29.68 in1005.1 mb - 0.00 in0.0 mm 0.00 in0.0 mm
02:30 PM 67.8°F19.9°C 55.6°F13.1°C 65% 6.5 mph SE10.5 kmh SE 9.0 mph14.5 kmh 29.69 in1005.4 mb - 0.00 in0.0 mm 0.00 in0.0 mm
02:20 PM 67.7°F19.8°C 55.1°F12.8°C 64% 7.3 mph E11.7 kmh E 12.0 mph19.3 kmh 29.69 in1005.4 mb - 0.00 in0.0 mm 0.00 in0.0 mm
02:10 PM 67.8°F19.9°C 55.6°F13.1°C 65% 8.7 mph S14.0 kmh S 14.0 mph22.5 kmh 29.69 in1005.4 mb - 0.00 in0.0 mm 0.00 in0.0 mm
02:00 PM 68.0°F20.0°C 55.4°F13.0°C 64% 9.3 mph SE15.0 kmh SE 13.0 mph20.9 kmh 29.69 in1005.4 mb - 0.00 in0.0 mm 0.00 in0.0 mm
01:50 PM 68.1°F20.1°C 55.5°F13.1°C 64% 6.8 mph SE10.9 kmh SE 11.0 mph17.7 kmh 29.69 in1005.4 mb - 0.00 in0.0 mm 0.00 in0.0 mm
01:40 PM 68.5°F20.3°C 55.8°F13.2°C 64% 7.6 mph SE12.2 kmh SE 14.0 mph22.5 kmh 29.69 in1005.4 mb - 0.00 in0.0 mm 0.00 in0.0 mm
01:30 PM 68.5°F20.3°C 55.8°F13.2°C 64% 3.4 mph SE5.5 kmh SE 8.0 mph12.9 kmh 29.68 in1005.1 mb - 0.00 in0.0 mm 0.00 in0.0 mm
01:20 PM 68.3°F20.2°C 55.6°F13.1°C 64% 6.3 mph ESE10.1 kmh ESE 11.0 mph17.7 kmh 29.69 in1005.4 mb - 0.00 in0.0 mm 0.00 in0.0 mm
01:10 PM 68.4°F20.2°C 56.2°F13.4°C 65% 4.6 mph SE7.4 kmh SE 8.0 mph12.9 kmh 29.69 in1005.4 mb - 0.00 in0.0 mm 0.00 in0.0 mm
01:00 PM 67.9°F19.9°C 56.1°F13.4°C 66% 5.6 mph ESE9.0 kmh ESE 9.0 mph14.5 kmh 29.69 in1005.4 mb - 0.00 in0.0 mm 0.00 in0.0 mm
12:50 PM 67.5°F19.7°C 56.2°F13.4°C 67% 4.4 mph SSE7.1 kmh SSE 9.0 mph14.5 kmh 29.69 in1005.4 mb - 0.00 in0.0 mm 0.00 in0.0 mm
12:40 PM 67.1°F19.5°C 56.6°F13.7°C 69% 6.8 mph SE10.9 kmh SE 13.0 mph20.9 kmh 29.69 in1005.4 mb - 0.00 in0.0 mm 0.00 in0.0 mm
12:30 PM 66.9°F19.4°C 56.0°F13.3°C 68% 6.2 mph SE10.0 kmh SE 8.0 mph12.9 kmh 29.69 in1005.4 mb - 0.00 in0.0 mm 0.00 in0.0 mm
12:20 PM 67.0°F19.4°C 56.1°F13.4°C 68% 8.0 mph SE12.9 kmh SE 14.0 mph22.5 kmh 29.69 in1005.4 mb - 0.00 in0.0 mm 0.00 in0.0 mm
12:00 PM 65.6°F18.7°C 56.3°F13.5°C 72% 5.5 mph SE8.9 kmh SE 9.0 mph14.5 kmh 29.69 in1005.4 mb - 0.00 in0.0 mm 0.00 in0.0 mm
11:50 AM 65.6°F18.7°C 56.3°F13.5°C 72% 5.5 mph S8.9 kmh S 8.0 mph12.9 kmh 29.69 in1005.4 mb - 0.00 in0.0 mm 0.00 in0.0 mm
11:40 AM 65.6°F18.7°C 56.3°F13.5°C 72% 5.5 mph ESE8.9 kmh ESE 10.0 mph16.1 kmh 29.69 in1005.4 mb - 0.00 in0.0 mm 0.00 in0.0 mm
11:30 AM 65.6°F18.7°C 56.3°F13.5°C 72% 5.5 mph SE8.9 kmh SE 12.0 mph19.3 kmh 29.69 in1005.4 mb - 0.00 in0.0 mm 0.00 in0.0 mm
11:20 AM 65.6°F18.7°C 56.3°F13.5°C 72% 5.5 mph S8.9 kmh S 7.0 mph11.3 kmh 29.69 in1005.4 mb - 0.00 in0.0 mm 0.00 in0.0 mm
11:10 AM 65.6°F18.7°C 56.3°F13.5°C 72% 5.5 mph SE8.9 kmh SE 7.0 mph11.3 kmh 29.69 in1005.4 mb - 0.00 in0.0 mm 0.00 in0.0 mm
11:00 AM 65.6°F18.7°C 56.3°F13.5°C 72% 5.5 mph S8.9 kmh S 13.0 mph20.9 kmh 29.69 in1005.4 mb - 0.00 in0.0 mm 0.00 in0.0 mm
10:50 AM 65.6°F18.7°C 56.3°F13.5°C 72% 5.5 mph SE8.9 kmh SE 7.0 mph11.3 kmh 29.69 in1005.4 mb - 0.00 in0.0 mm 0.00 in0.0 mm
10:40 AM 65.3°F18.5°C 56.0°F13.3°C 72% 6.2 mph ESE10.0 kmh ESE 12.0 mph19.3 kmh 29.69 in1005.4 mb - 0.00 in0.0 mm 0.00 in0.0 mm
06:50 AM 57.2°F14.0°C 52.4°F11.3°C 84% 2.5 mph SSE4.0 kmh SSE 4.0 mph6.4 kmh 29.69 in1005.4 mb - 0.00 in0.0 mm 0.00 in0.0 mm
06:40 AM 57.4°F14.1°C 52.3°F11.3°C 83% 3.5 mph SE5.6 kmh SE 7.0 mph11.3 kmh 29.69 in1005.4 mb - 0.00 in0.0 mm 0.00 in0.0 mm
06:30 AM 57.4°F14.1°C 52.0°F11.1°C 82% 3.7 mph S6.0 kmh S 7.0 mph11.3 kmh 29.69 in1005.4 mb - 0.00 in0.0 mm 0.00 in0.0 mm
06:20 AM 57.3°F14.1°C 51.5°F10.8°C 81% 3.6 mph S5.8 kmh S 7.0 mph11.3 kmh 29.68 in1005.1 mb - 0.00 in0.0 mm 0.00 in0.0 mm
06:10 AM 57.1°F13.9°C 51.3°F10.7°C 81% 3.6 mph SSE5.8 kmh SSE 7.0 mph11.3 kmh 29.68 in1005.1 mb - 0.00 in0.0 mm 0.00 in0.0 mm
06:00 AM 56.9°F13.8°C 50.8°F10.4°C 80% 4.8 mph E7.7 kmh E 8.0 mph12.9 kmh 29.68 in1005.1 mb - 0.00 in0.0 mm 0.00 in0.0 mm
05:50 AM 56.6°F13.7°C 50.5°F10.3°C 80% 3.0 mph SSW4.8 kmh SSW 4.0 mph6.4 kmh 29.68 in1005.1 mb - 0.00 in0.0 mm 0.00 in0.0 mm
05:40 AM 56.3°F13.5°C 50.2°F10.1°C 80% 5.4 mph SSE8.7 kmh SSE 8.0 mph12.9 kmh 29.68 in1005.1 mb - 0.00 in0.0 mm 0.00 in0.0 mm
05:30 AM 55.9°F13.3°C 50.5°F10.3°C 82% 4.2 mph ESE6.8 kmh ESE 8.0 mph12.9 kmh 29.68 in1005.1 mb - 0.00 in0.0 mm 0.00 in0.0 mm
05:20 AM 55.3°F12.9°C 50.5°F10.3°C 84% 3.1 mph SE5.0 kmh SE 4.0 mph6.4 kmh 29.68 in1005.1 mb - 0.00 in0.0 mm 0.00 in0.0 mm
05:10 AM 54.6°F12.6°C 50.5°F10.3°C 86% 2.7 mph SE4.3 kmh SE 7.0 mph11.3 kmh 29.68 in1005.1 mb - 0.00 in0.0 mm 0.00 in0.0 mm
05:00 AM 53.9°F12.2°C 50.4°F10.2°C 88% 2.1 mph SE3.4 kmh SE 4.0 mph6.4 kmh 29.69 in1005.4 mb - 0.00 in0.0 mm 0.00 in0.0 mm
04:50 AM 53.2°F11.8°C 50.0°F10.0°C 89% 2.3 mph SE3.7 kmh SE 3.0 mph4.8 kmh 29.69 in1005.4 mb - 0.00 in0.0 mm 0.00 in0.0 mm
04:40 AM 52.6°F11.4°C 50.0°F10.0°C 91% 1.4 mph SE2.3 kmh SE 4.0 mph6.4 kmh 29.69 in1005.4 mb - 0.00 in0.0 mm 0.00 in0.0 mm
04:30 AM 51.9°F11.1°C 49.4°F9.7°C 91% 2.4 mph SE3.9 kmh SE 5.0 mph8.0 kmh 29.69 in1005.4 mb - 0.00 in0.0 mm 0.00 in0.0 mm
04:20 AM 51.2°F10.7°C 49.0°F9.4°C 92% 0.1 mph E0.2 kmh E -- 29.69 in1005.4 mb - 0.00 in0.0 mm 0.00 in0.0 mm
04:10 AM 50.6°F10.3°C 48.3°F9.1°C 92% Calm Calm -- 29.69 in1005.4 mb - 0.00 in0.0 mm 0.00 in0.0 mm
04:00 AM 50.0°F10.0°C 47.8°F8.8°C 92% Calm Calm -- 29.69 in1005.4 mb - 0.00 in0.0 mm 0.00 in0.0 mm
03:50 AM 49.6°F9.8°C 47.1°F8.4°C 91% Calm Calm -- 29.70 in1005.8 mb - 0.00 in0.0 mm 0.00 in0.0 mm
03:40 AM 49.2°F9.6°C 46.7°F8.2°C 91% Calm Calm -- 29.70 in1005.8 mb - 0.00 in0.0 mm 0.00 in0.0 mm
03:30 AM 48.9°F9.4°C 46.4°F8.0°C 91% Calm Calm -- 29.70 in1005.8 mb - 0.00 in0.0 mm 0.00 in0.0 mm
03:20 AM 48.3°F9.1°C 45.5°F7.5°C 90% Calm Calm -- 29.70 in1005.8 mb - 0.00 in0.0 mm 0.00 in0.0 mm
03:10 AM 48.1°F8.9°C 45.3°F7.4°C 90% Calm Calm -- 29.71 in1006.1 mb - 0.00 in0.0 mm 0.00 in0.0 mm
03:00 AM 48.1°F8.9°C 45.0°F7.2°C 89% Calm Calm -- 29.71 in1006.1 mb - 0.00 in0.0 mm 0.00 in0.0 mm
02:50 AM 48.0°F8.9°C 44.9°F7.2°C 89% Calm Calm -- 29.71 in1006.1 mb - 0.00 in0.0 mm 0.00 in0.0 mm
02:40 AM 47.9°F8.8°C 44.8°F7.1°C 89% Calm Calm -- 29.71 in1006.1 mb - 0.00 in0.0 mm 0.00 in0.0 mm
02:30 AM 48.0°F8.9°C 44.6°F7.0°C 88% Calm Calm -- 29.71 in1006.1 mb - 0.00 in0.0 mm 0.00 in0.0 mm
02:20 AM 48.1°F8.9°C 44.7°F7.1°C 88% Calm Calm -- 29.71 in1006.1 mb - 0.00 in0.0 mm 0.00 in0.0 mm
02:10 AM 48.2°F9.0°C 44.8°F7.1°C 88% Calm Calm -- 29.71 in1006.1 mb - 0.00 in0.0 mm 0.00 in0.0 mm
02:00 AM 48.3°F9.1°C 44.6°F7.0°C 87% Calm Calm -- 29.71 in1006.1 mb - 0.00 in0.0 mm 0.00 in0.0 mm
01:50 AM 48.5°F9.2°C 44.8°F7.1°C 87% Calm Calm -- 29.71 in1006.1 mb - 0.00 in0.0 mm 0.00 in0.0 mm
01:40 AM 48.6°F9.2°C 44.9°F7.2°C 87% Calm Calm -- 29.71 in1006.1 mb - 0.00 in0.0 mm 0.00 in0.0 mm
01:30 AM 48.7°F9.3°C 45.0°F7.2°C 87% Calm Calm -- 29.72 in1006.4 mb - 0.00 in0.0 mm 0.00 in0.0 mm
01:20 AM 48.7°F9.3°C 44.7°F7.1°C 86% Calm Calm -- 29.72 in1006.4 mb - 0.00 in0.0 mm 0.00 in0.0 mm
01:10 AM 48.8°F9.3°C 44.8°F7.1°C 86% Calm Calm -- 29.72 in1006.4 mb - 0.00 in0.0 mm 0.00 in0.0 mm
01:00 AM 49.0°F9.4°C 44.7°F7.1°C 85% Calm Calm -- 29.72 in1006.4 mb - 0.00 in0.0 mm 0.00 in0.0 mm
12:50 AM 49.2°F9.6°C 44.9°F7.2°C 85% Calm Calm -- 29.72 in1006.4 mb - 0.00 in0.0 mm 0.00 in0.0 mm
12:40 AM 49.4°F9.7°C 44.8°F7.1°C 84% Calm Calm -- 29.72 in1006.4 mb - 0.00 in0.0 mm 0.00 in0.0 mm
12:30 AM 49.7°F9.8°C 45.1°F7.3°C 84% Calm Calm -- 29.72 in1006.4 mb - 0.00 in0.0 mm 0.00 in0.0 mm
12:20 AM 50.0°F10.0°C 45.0°F7.2°C 83% Calm Calm -- 29.72 in1006.4 mb - 0.00 in0.0 mm 0.00 in0.0 mm
12:10 AM 50.4°F10.2°C 45.1°F7.3°C 82% Calm Calm -- 29.72 in1006.4 mb - 0.00 in0.0 mm 0.00 in0.0 mm
12:00 AM 50.7°F10.4°C 45.4°F7.4°C 82% Calm Calm -- 29.72 in1006.4 mb - 0.00 in0.0 mm 0.00 in0.0 mm